sensor_id;sensor_type;location;lat;lon;timestamp;P1;durP1;ratioP1;P2;durP2;ratioP2
21564;SDS011;10943;48.738;9.320;2022-12-11T00:00:53;25.42;;;16.02;;
21564;SDS011;10943;48.738;9.320;2022-12-11T00:03:21;23.02;;;16.27;;
21564;SDS011;10943;48.738;9.320;2022-12-11T00:05:48;22.55;;;14.93;;
21564;SDS011;10943;48.738;9.320;2022-12-11T00:08:15;23.17;;;14.90;;
21564;SDS011;10943;48.738;9.320;2022-12-11T00:10:47;22.88;;;14.68;;
21564;SDS011;10943;48.738;9.320;2022-12-11T00:13:15;22.23;;;14.82;;
21564;SDS011;10943;48.738;9.320;2022-12-11T00:15:43;22.52;;;14.85;;
21564;SDS011;10943;48.738;9.320;2022-12-11T00:18:11;23.05;;;15.82;;
21564;SDS011;10943;48.738;9.320;2022-12-11T00:20:40;22.70;;;15.10;;
21564;SDS011;10943;48.738;9.320;2022-12-11T00:23:10;22.88;;;15.50;;
21564;SDS011;10943;48.738;9.320;2022-12-11T00:25:41;25.38;;;15.95;;
21564;SDS011;10943;48.738;9.320;2022-12-11T00:28:14;23.95;;;15.82;;
21564;SDS011;10943;48.738;9.320;2022-12-11T00:30:45;23.85;;;15.98;;
21564;SDS011;10943;48.738;9.320;2022-12-11T00:33:14;26.27;;;16.45;;
21564;SDS011;10943;48.738;9.320;2022-12-11T00:35:44;28.15;;;17.35;;
21564;SDS011;10943;48.738;9.320;2022-12-11T00:38:15;25.23;;;15.98;;
21564;SDS011;10943;48.738;9.320;2022-12-11T00:40:47;25.40;;;16.55;;
21564;SDS011;10943;48.738;9.320;2022-12-11T00:43:15;25.63;;;16.05;;
21564;SDS011;10943;48.738;9.320;2022-12-11T00:45:44;23.48;;;15.77;;
21564;SDS011;10943;48.738;9.320;2022-12-11T00:48:14;25.02;;;15.43;;
21564;SDS011;10943;48.738;9.320;2022-12-11T00:50:46;25.50;;;16.30;;
21564;SDS011;10943;48.738;9.320;2022-12-11T00:53:14;29.55;;;17.73;;
21564;SDS011;10943;48.738;9.320;2022-12-11T00:55:54;27.10;;;18.52;;
21564;SDS011;10943;48.738;9.320;2022-12-11T00:58:22;27.10;;;17.40;;
21564;SDS011;10943;48.738;9.320;2022-12-11T01:00:50;25.55;;;16.92;;
21564;SDS011;10943;48.738;9.320;2022-12-11T01:03:19;25.67;;;18.10;;
21564;SDS011;10943;48.738;9.320;2022-12-11T01:05:50;27.67;;;17.55;;
21564;SDS011;10943;48.738;9.320;2022-12-11T01:08:22;25.90;;;16.77;;
21564;SDS011;10943;48.738;9.320;2022-12-11T01:10:50;26.15;;;16.73;;
21564;SDS011;10943;48.738;9.320;2022-12-11T01:13:17;25.30;;;16.90;;
21564;SDS011;10943;48.738;9.320;2022-12-11T01:15:45;23.70;;;15.35;;
21564;SDS011;10943;48.738;9.320;2022-12-11T01:18:17;24.30;;;15.77;;
21564;SDS011;10943;48.738;9.320;2022-12-11T01:20:45;26.05;;;16.17;;
21564;SDS011;10943;48.738;9.320;2022-12-11T01:23:14;24.58;;;16.23;;
21564;SDS011;10943;48.738;9.320;2022-12-11T01:25:42;24.08;;;16.85;;
21564;SDS011;10943;48.738;9.320;2022-12-11T01:28:10;26.10;;;17.63;;
21564;SDS011;10943;48.738;9.320;2022-12-11T01:30:40;25.67;;;16.02;;
21564;SDS011;10943;48.738;9.320;2022-12-11T01:33:09;24.70;;;16.27;;
21564;SDS011;10943;48.738;9.320;2022-12-11T01:35:38;27.77;;;17.00;;
21564;SDS011;10943;48.738;9.320;2022-12-11T01:38:06;26.80;;;17.60;;
21564;SDS011;10943;48.738;9.320;2022-12-11T01:40:36;24.00;;;16.48;;
21564;SDS011;10943;48.738;9.320;2022-12-11T01:43:03;26.70;;;17.23;;
21564;SDS011;10943;48.738;9.320;2022-12-11T01:48:36;24.90;;;16.20;;
21564;SDS011;10943;48.738;9.320;2022-12-11T01:51:07;24.52;;;16.55;;
21564;SDS011;10943;48.738;9.320;2022-12-11T01:53:47;27.90;;;17.02;;
21564;SDS011;10943;48.738;9.320;2022-12-11T01:56:26;25.27;;;16.63;;
21564;SDS011;10943;48.738;9.320;2022-12-11T01:58:59;25.60;;;16.10;;
21564;SDS011;10943;48.738;9.320;2022-12-11T02:04:06;24.90;;;16.33;;
21564;SDS011;10943;48.738;9.320;2022-12-11T02:06:40;25.35;;;17.05;;
21564;SDS011;10943;48.738;9.320;2022-12-11T02:09:23;26.10;;;16.48;;
21564;SDS011;10943;48.738;9.320;2022-12-11T02:26:43;23.70;;;15.80;;
21564;SDS011;10943;48.738;9.320;2022-12-11T02:35:14;24.25;;;15.88;;
21564;SDS011;10943;48.738;9.320;2022-12-11T02:37:53;22.55;;;15.38;;
21564;SDS011;10943;48.738;9.320;2022-12-11T02:40:30;22.13;;;14.70;;
21564;SDS011;10943;48.738;9.320;2022-12-11T02:43:03;22.80;;;15.10;;
21564;SDS011;10943;48.738;9.320;2022-12-11T02:45:36;22.35;;;14.98;;
21564;SDS011;10943;48.738;9.320;2022-12-11T02:48:08;22.50;;;14.43;;
21564;SDS011;10943;48.738;9.320;2022-12-11T02:50:41;22.02;;;14.45;;
21564;SDS011;10943;48.738;9.320;2022-12-11T02:53:15;22.02;;;14.15;;
21564;SDS011;10943;48.738;9.320;2022-12-11T02:55:49;21.40;;;14.05;;
21564;SDS011;10943;48.738;9.320;2022-12-11T02:58:29;22.08;;;14.70;;
21564;SDS011;10943;48.738;9.320;2022-12-11T03:01:00;24.13;;;14.52;;
21564;SDS011;10943;48.738;9.320;2022-12-11T03:03:28;26.50;;;15.80;;
21564;SDS011;10943;48.738;9.320;2022-12-11T03:05:56;25.63;;;14.40;;
21564;SDS011;10943;48.738;9.320;2022-12-11T03:08:23;23.02;;;14.20;;
21564;SDS011;10943;48.738;9.320;2022-12-11T03:10:52;21.17;;;14.15;;
21564;SDS011;10943;48.738;9.320;2022-12-11T03:13:20;22.23;;;14.80;;
21564;SDS011;10943;48.738;9.320;2022-12-11T03:15:58;22.63;;;15.02;;
21564;SDS011;10943;48.738;9.320;2022-12-11T03:24:21;22.63;;;14.80;;
21564;SDS011;10943;48.738;9.320;2022-12-11T03:29:54;23.88;;;14.73;;
21564;SDS011;10943;48.738;9.320;2022-12-11T03:32:39;23.83;;;15.10;;
21564;SDS011;10943;48.738;9.320;2022-12-11T03:37:59;23.48;;;15.02;;
21564;SDS011;10943;48.738;9.320;2022-12-11T03:40:35;23.60;;;14.30;;
21564;SDS011;10943;48.738;9.320;2022-12-11T03:43:09;21.00;;;14.65;;
21564;SDS011;10943;48.738;9.320;2022-12-11T03:45:38;21.73;;;14.32;;
21564;SDS011;10943;48.738;9.320;2022-12-11T03:48:08;21.45;;;14.02;;
21564;SDS011;10943;48.738;9.320;2022-12-11T03:50:39;22.42;;;14.70;;
21564;SDS011;10943;48.738;9.320;2022-12-11T03:53:13;22.40;;;14.35;;
21564;SDS011;10943;48.738;9.320;2022-12-11T03:55:42;22.05;;;14.65;;
21564;SDS011;10943;48.738;9.320;2022-12-11T03:58:13;22.52;;;14.68;;
21564;SDS011;10943;48.738;9.320;2022-12-11T04:00:41;22.37;;;15.10;;
21564;SDS011;10943;48.738;9.320;2022-12-11T04:03:08;25.02;;;15.43;;
21564;SDS011;10943;48.738;9.320;2022-12-11T04:05:40;21.52;;;14.18;;
21564;SDS011;10943;48.738;9.320;2022-12-11T04:08:13;21.60;;;14.40;;
21564;SDS011;10943;48.738;9.320;2022-12-11T04:10:42;21.08;;;14.40;;
21564;SDS011;10943;48.738;9.320;2022-12-11T04:13:10;23.25;;;14.45;;
21564;SDS011;10943;48.738;9.320;2022-12-11T04:15:39;22.85;;;14.30;;
21564;SDS011;10943;48.738;9.320;2022-12-11T04:18:07;21.20;;;13.15;;
21564;SDS011;10943;48.738;9.320;2022-12-11T04:20:55;19.55;;;12.68;;
21564;SDS011;10943;48.738;9.320;2022-12-11T04:23:41;21.00;;;13.43;;
21564;SDS011;10943;48.738;9.320;2022-12-11T04:26:27;20.00;;;13.27;;
21564;SDS011;10943;48.738;9.320;2022-12-11T04:28:55;19.15;;;13.45;;
21564;SDS011;10943;48.738;9.320;2022-12-11T04:31:22;20.33;;;12.65;;
21564;SDS011;10943;48.738;9.320;2022-12-11T04:33:50;22.10;;;13.82;;
21564;SDS011;10943;48.738;9.320;2022-12-11T04:36:17;20.95;;;13.48;;
21564;SDS011;10943;48.738;9.320;2022-12-11T04:38:45;19.65;;;13.43;;
21564;SDS011;10943;48.738;9.320;2022-12-11T04:41:13;21.05;;;14.05;;
21564;SDS011;10943;48.738;9.320;2022-12-11T04:43:42;23.35;;;13.77;;
21564;SDS011;10943;48.738;9.320;2022-12-11T04:46:12;25.23;;;16.17;;
21564;SDS011;10943;48.738;9.320;2022-12-11T04:48:47;24.35;;;14.70;;
21564;SDS011;10943;48.738;9.320;2022-12-11T04:51:23;21.23;;;13.88;;
21564;SDS011;10943;48.738;9.320;2022-12-11T04:53:51;22.42;;;13.98;;
21564;SDS011;10943;48.738;9.320;2022-12-11T04:56:22;19.33;;;12.38;;
21564;SDS011;10943;48.738;9.320;2022-12-11T04:58:50;20.70;;;12.73;;
21564;SDS011;10943;48.738;9.320;2022-12-11T05:01:19;21.55;;;13.18;;
21564;SDS011;10943;48.738;9.320;2022-12-11T05:03:49;18.55;;;11.48;;
21564;SDS011;10943;48.738;9.320;2022-12-11T05:06:17;20.17;;;12.57;;
21564;SDS011;10943;48.738;9.320;2022-12-11T05:08:44;19.98;;;13.40;;
21564;SDS011;10943;48.738;9.320;2022-12-11T05:11:13;18.77;;;12.38;;
21564;SDS011;10943;48.738;9.320;2022-12-11T05:13:42;20.60;;;12.63;;
21564;SDS011;10943;48.738;9.320;2022-12-11T05:16:12;19.50;;;12.55;;
21564;SDS011;10943;48.738;9.320;2022-12-11T05:18:42;20.38;;;13.30;;
21564;SDS011;10943;48.738;9.320;2022-12-11T05:21:11;19.92;;;12.73;;
21564;SDS011;10943;48.738;9.320;2022-12-11T05:23:41;19.42;;;12.43;;
21564;SDS011;10943;48.738;9.320;2022-12-11T05:26:13;21.70;;;13.15;;
21564;SDS011;10943;48.738;9.320;2022-12-11T05:28:45;18.93;;;12.63;;
21564;SDS011;10943;48.738;9.320;2022-12-11T05:31:20;17.63;;;11.30;;
21564;SDS011;10943;48.738;9.320;2022-12-11T05:33:52;17.40;;;10.65;;
21564;SDS011;10943;48.738;9.320;2022-12-11T05:36:22;16.63;;;10.65;;
21564;SDS011;10943;48.738;9.320;2022-12-11T05:38:57;18.67;;;11.23;;
21564;SDS011;10943;48.738;9.320;2022-12-11T05:41:27;15.90;;;10.57;;
21564;SDS011;10943;48.738;9.320;2022-12-11T05:43:56;17.70;;;11.27;;
21564;SDS011;10943;48.738;9.320;2022-12-11T05:46:26;18.13;;;11.13;;
21564;SDS011;10943;48.738;9.320;2022-12-11T05:48:57;16.17;;;10.35;;
21564;SDS011;10943;48.738;9.320;2022-12-11T05:51:28;18.58;;;10.77;;
21564;SDS011;10943;48.738;9.320;2022-12-11T05:53:57;18.70;;;10.98;;
21564;SDS011;10943;48.738;9.320;2022-12-11T05:56:28;16.67;;;11.20;;
21564;SDS011;10943;48.738;9.320;2022-12-11T05:58:59;18.02;;;11.15;;
21564;SDS011;10943;48.738;9.320;2022-12-11T06:01:32;16.20;;;10.45;;
21564;SDS011;10943;48.738;9.320;2022-12-11T06:04:07;17.25;;;11.27;;
21564;SDS011;10943;48.738;9.320;2022-12-11T06:06:38;19.25;;;11.07;;
21564;SDS011;10943;48.738;9.320;2022-12-11T06:09:06;18.48;;;11.02;;
21564;SDS011;10943;48.738;9.320;2022-12-11T06:11:34;19.27;;;11.18;;
21564;SDS011;10943;48.738;9.320;2022-12-11T06:14:02;18.90;;;11.43;;
21564;SDS011;10943;48.738;9.320;2022-12-11T06:16:30;18.05;;;11.50;;
21564;SDS011;10943;48.738;9.320;2022-12-11T06:18:58;19.58;;;11.80;;
21564;SDS011;10943;48.738;9.320;2022-12-11T06:21:27;21.40;;;12.13;;
21564;SDS011;10943;48.738;9.320;2022-12-11T06:24:01;18.50;;;10.95;;
21564;SDS011;10943;48.738;9.320;2022-12-11T06:26:29;20.08;;;11.43;;
21564;SDS011;10943;48.738;9.320;2022-12-11T06:28:58;19.20;;;11.65;;
21564;SDS011;10943;48.738;9.320;2022-12-11T06:31:25;19.05;;;11.48;;
21564;SDS011;10943;48.738;9.320;2022-12-11T06:33:53;18.40;;;11.40;;
21564;SDS011;10943;48.738;9.320;2022-12-11T06:36:22;16.00;;;10.75;;
21564;SDS011;10943;48.738;9.320;2022-12-11T06:38:51;17.60;;;11.05;;
21564;SDS011;10943;48.738;9.320;2022-12-11T06:41:20;18.17;;;11.27;;
21564;SDS011;10943;48.738;9.320;2022-12-11T06:43:48;17.42;;;11.85;;
21564;SDS011;10943;48.738;9.320;2022-12-11T06:46:17;18.45;;;11.90;;
21564;SDS011;10943;48.738;9.320;2022-12-11T06:48:46;20.30;;;12.80;;
21564;SDS011;10943;48.738;9.320;2022-12-11T06:51:16;19.52;;;12.52;;
21564;SDS011;10943;48.738;9.320;2022-12-11T06:53:51;20.77;;;13.02;;
21564;SDS011;10943;48.738;9.320;2022-12-11T06:56:22;20.27;;;12.57;;
21564;SDS011;10943;48.738;9.320;2022-12-11T06:58:51;21.33;;;12.60;;
21564;SDS011;10943;48.738;9.320;2022-12-11T07:01:20;22.13;;;13.57;;
21564;SDS011;10943;48.738;9.320;2022-12-11T07:03:53;22.65;;;12.90;;
21564;SDS011;10943;48.738;9.320;2022-12-11T07:06:26;23.67;;;14.55;;
21564;SDS011;10943;48.738;9.320;2022-12-11T07:08:54;23.17;;;13.90;;
21564;SDS011;10943;48.738;9.320;2022-12-11T07:11:23;23.63;;;14.40;;
21564;SDS011;10943;48.738;9.320;2022-12-11T07:13:50;22.58;;;13.85;;
21564;SDS011;10943;48.738;9.320;2022-12-11T07:16:20;21.70;;;13.38;;
21564;SDS011;10943;48.738;9.320;2022-12-11T07:18:48;23.45;;;14.48;;
21564;SDS011;10943;48.738;9.320;2022-12-11T07:21:17;23.63;;;14.32;;
21564;SDS011;10943;48.738;9.320;2022-12-11T07:23:46;22.45;;;13.88;;
21564;SDS011;10943;48.738;9.320;2022-12-11T07:26:15;19.80;;;12.75;;
21564;SDS011;10943;48.738;9.320;2022-12-11T07:28:46;23.05;;;13.70;;
21564;SDS011;10943;48.738;9.320;2022-12-11T07:31:19;21.80;;;14.13;;
21564;SDS011;10943;48.738;9.320;2022-12-11T07:33:56;26.63;;;16.83;;
21564;SDS011;10943;48.738;9.320;2022-12-11T07:36:33;35.33;;;19.83;;
21564;SDS011;10943;48.738;9.320;2022-12-11T07:39:01;23.63;;;14.57;;
21564;SDS011;10943;48.738;9.320;2022-12-11T07:41:29;23.05;;;14.40;;
21564;SDS011;10943;48.738;9.320;2022-12-11T07:43:58;21.95;;;13.13;;
21564;SDS011;10943;48.738;9.320;2022-12-11T07:46:27;19.55;;;13.15;;
21564;SDS011;10943;48.738;9.320;2022-12-11T07:48:59;21.63;;;14.02;;
21564;SDS011;10943;48.738;9.320;2022-12-11T07:51:29;21.30;;;13.40;;
21564;SDS011;10943;48.738;9.320;2022-12-11T07:54:04;20.48;;;13.35;;
21564;SDS011;10943;48.738;9.320;2022-12-11T07:56:42;21.02;;;13.13;;
21564;SDS011;10943;48.738;9.320;2022-12-11T07:59:19;19.75;;;12.93;;
21564;SDS011;10943;48.738;9.320;2022-12-11T08:01:47;20.25;;;12.82;;
21564;SDS011;10943;48.738;9.320;2022-12-11T08:04:14;19.98;;;12.90;;
21564;SDS011;10943;48.738;9.320;2022-12-11T08:06:41;20.27;;;13.15;;
21564;SDS011;10943;48.738;9.320;2022-12-11T08:09:10;22.27;;;13.88;;
21564;SDS011;10943;48.738;9.320;2022-12-11T08:11:47;20.52;;;13.05;;
21564;SDS011;10943;48.738;9.320;2022-12-11T08:14:16;19.38;;;12.55;;
21564;SDS011;10943;48.738;9.320;2022-12-11T08:16:45;20.38;;;12.70;;
21564;SDS011;10943;48.738;9.320;2022-12-11T08:19:14;21.00;;;13.18;;
21564;SDS011;10943;48.738;9.320;2022-12-11T08:21:43;21.05;;;13.80;;
21564;SDS011;10943;48.738;9.320;2022-12-11T08:24:12;20.50;;;13.13;;
21564;SDS011;10943;48.738;9.320;2022-12-11T08:26:43;21.02;;;13.00;;
21564;SDS011;10943;48.738;9.320;2022-12-11T08:29:10;19.58;;;12.25;;
21564;SDS011;10943;48.738;9.320;2022-12-11T08:31:39;19.15;;;13.05;;
21564;SDS011;10943;48.738;9.320;2022-12-11T08:34:07;20.20;;;13.13;;
21564;SDS011;10943;48.738;9.320;2022-12-11T08:36:39;21.45;;;13.00;;
21564;SDS011;10943;48.738;9.320;2022-12-11T08:39:07;19.92;;;13.43;;
21564;SDS011;10943;48.738;9.320;2022-12-11T08:41:36;19.83;;;12.95;;
21564;SDS011;10943;48.738;9.320;2022-12-11T08:44:03;21.65;;;13.70;;
21564;SDS011;10943;48.738;9.320;2022-12-11T08:46:37;22.48;;;14.00;;
21564;SDS011;10943;48.738;9.320;2022-12-11T08:49:05;20.35;;;12.95;;
21564;SDS011;10943;48.738;9.320;2022-12-11T08:51:32;19.48;;;12.68;;
21564;SDS011;10943;48.738;9.320;2022-12-11T08:54:00;21.23;;;12.85;;
21564;SDS011;10943;48.738;9.320;2022-12-11T08:56:28;22.67;;;15.10;;
21564;SDS011;10943;48.738;9.320;2022-12-11T08:58:58;18.10;;;12.93;;
21564;SDS011;10943;48.738;9.320;2022-12-11T09:01:27;20.58;;;13.80;;
21564;SDS011;10943;48.738;9.320;2022-12-11T09:03:55;19.45;;;13.73;;
21564;SDS011;10943;48.738;9.320;2022-12-11T09:06:25;22.95;;;14.00;;
21564;SDS011;10943;48.738;9.320;2022-12-11T09:08:57;21.08;;;13.80;;
21564;SDS011;10943;48.738;9.320;2022-12-11T09:11:29;19.80;;;13.27;;
21564;SDS011;10943;48.738;9.320;2022-12-11T09:14:00;20.27;;;13.45;;
21564;SDS011;10943;48.738;9.320;2022-12-11T09:16:34;20.42;;;12.80;;
21564;SDS011;10943;48.738;9.320;2022-12-11T09:19:06;21.92;;;13.88;;
21564;SDS011;10943;48.738;9.320;2022-12-11T09:21:40;21.40;;;13.55;;
21564;SDS011;10943;48.738;9.320;2022-12-11T09:24:10;22.67;;;14.68;;
21564;SDS011;10943;48.738;9.320;2022-12-11T09:26:39;22.23;;;14.68;;
21564;SDS011;10943;48.738;9.320;2022-12-11T09:29:07;20.50;;;13.15;;
21564;SDS011;10943;48.738;9.320;2022-12-11T09:31:40;22.08;;;14.40;;
21564;SDS011;10943;48.738;9.320;2022-12-11T09:34:09;22.92;;;14.55;;
21564;SDS011;10943;48.738;9.320;2022-12-11T09:36:39;23.88;;;14.65;;
21564;SDS011;10943;48.738;9.320;2022-12-11T09:39:10;23.20;;;14.95;;
21564;SDS011;10943;48.738;9.320;2022-12-11T09:47:19;22.60;;;14.93;;
21564;SDS011;10943;48.738;9.320;2022-12-11T09:55:37;24.75;;;15.40;;
21564;SDS011;10943;48.738;9.320;2022-12-11T10:08:19;26.95;;;16.50;;
21564;SDS011;10943;48.738;9.320;2022-12-11T10:11:04;26.40;;;16.52;;
21564;SDS011;10943;48.738;9.320;2022-12-11T10:17:11;24.77;;;17.15;;
21564;SDS011;10943;48.738;9.320;2022-12-11T10:19:50;23.58;;;15.40;;
21564;SDS011;10943;48.738;9.320;2022-12-11T10:22:21;24.90;;;16.00;;
21564;SDS011;10943;48.738;9.320;2022-12-11T10:25:00;25.15;;;17.38;;
21564;SDS011;10943;48.738;9.320;2022-12-11T10:27:46;22.88;;;15.30;;
21564;SDS011;10943;48.738;9.320;2022-12-11T10:30:23;21.52;;;14.98;;
21564;SDS011;10943;48.738;9.320;2022-12-11T10:35:57;21.92;;;14.30;;
21564;SDS011;10943;48.738;9.320;2022-12-11T10:41:19;20.90;;;14.60;;
21564;SDS011;10943;48.738;9.320;2022-12-11T10:43:54;21.83;;;14.77;;
21564;SDS011;10943;48.738;9.320;2022-12-11T10:46:27;21.50;;;14.25;;
21564;SDS011;10943;48.738;9.320;2022-12-11T10:48:56;20.75;;;14.00;;
21564;SDS011;10943;48.738;9.320;2022-12-11T10:54:07;21.45;;;13.95;;
21564;SDS011;10943;48.738;9.320;2022-12-11T10:57:24;20.70;;;13.80;;
21564;SDS011;10943;48.738;9.320;2022-12-11T10:59:57;21.73;;;14.00;;
21564;SDS011;10943;48.738;9.320;2022-12-11T11:02:38;19.75;;;14.27;;
21564;SDS011;10943;48.738;9.320;2022-12-11T11:05:13;22.65;;;15.07;;
21564;SDS011;10943;48.738;9.320;2022-12-11T11:08:18;22.48;;;14.93;;
21564;SDS011;10943;48.738;9.320;2022-12-11T11:13:29;21.60;;;14.65;;
21564;SDS011;10943;48.738;9.320;2022-12-11T11:16:05;19.80;;;14.25;;
21564;SDS011;10943;48.738;9.320;2022-12-11T11:18:48;23.25;;;14.45;;
21564;SDS011;10943;48.738;9.320;2022-12-11T11:21:21;21.40;;;14.20;;
21564;SDS011;10943;48.738;9.320;2022-12-11T11:23:52;19.58;;;13.93;;
21564;SDS011;10943;48.738;9.320;2022-12-11T11:26:20;20.38;;;13.82;;
21564;SDS011;10943;48.738;9.320;2022-12-11T11:31:21;21.60;;;14.15;;
21564;SDS011;10943;48.738;9.320;2022-12-11T11:34:01;20.98;;;14.25;;
21564;SDS011;10943;48.738;9.320;2022-12-11T11:36:34;21.10;;;14.55;;
21564;SDS011;10943;48.738;9.320;2022-12-11T11:39:06;23.00;;;15.13;;
21564;SDS011;10943;48.738;9.320;2022-12-11T11:41:59;22.48;;;14.52;;
21564;SDS011;10943;48.738;9.320;2022-12-11T11:47:18;23.92;;;15.43;;
21564;SDS011;10943;48.738;9.320;2022-12-11T11:52:50;22.77;;;14.05;;
21564;SDS011;10943;48.738;9.320;2022-12-11T12:02:08;22.20;;;13.82;;
21564;SDS011;10943;48.738;9.320;2022-12-11T12:04:44;22.05;;;14.15;;
21564;SDS011;10943;48.738;9.320;2022-12-11T12:13:40;19.95;;;13.93;;
21564;SDS011;10943;48.738;9.320;2022-12-11T12:23:10;19.90;;;13.88;;
21564;SDS011;10943;48.738;9.320;2022-12-11T12:32:08;19.08;;;13.15;;
21564;SDS011;10943;48.738;9.320;2022-12-11T12:35:36;20.08;;;12.95;;
21564;SDS011;10943;48.738;9.320;2022-12-11T12:38:53;21.92;;;13.35;;
21564;SDS011;10943;48.738;9.320;2022-12-11T12:44:41;18.05;;;12.75;;
21564;SDS011;10943;48.738;9.320;2022-12-11T12:47:26;20.85;;;13.80;;
21564;SDS011;10943;48.738;9.320;2022-12-11T12:49:59;20.88;;;13.75;;
21564;SDS011;10943;48.738;9.320;2022-12-11T12:52:37;20.95;;;13.43;;
21564;SDS011;10943;48.738;9.320;2022-12-11T12:55:26;22.67;;;14.07;;
21564;SDS011;10943;48.738;9.320;2022-12-11T12:58:04;20.40;;;13.43;;
21564;SDS011;10943;48.738;9.320;2022-12-11T13:00:53;19.17;;;13.43;;
21564;SDS011;10943;48.738;9.320;2022-12-11T13:03:47;21.48;;;13.15;;
21564;SDS011;10943;48.738;9.320;2022-12-11T13:09:23;21.02;;;13.13;;
21564;SDS011;10943;48.738;9.320;2022-12-11T13:11:56;18.90;;;13.40;;
21564;SDS011;10943;48.738;9.320;2022-12-11T13:14:38;19.70;;;13.75;;
21564;SDS011;10943;48.738;9.320;2022-12-11T13:17:52;19.15;;;12.90;;
21564;SDS011;10943;48.738;9.320;2022-12-11T13:20:15;21.23;;;13.25;;
21564;SDS011;10943;48.738;9.320;2022-12-11T13:25:48;21.25;;;13.30;;
21564;SDS011;10943;48.738;9.320;2022-12-11T13:31:04;20.55;;;13.30;;
21564;SDS011;10943;48.738;9.320;2022-12-11T13:33:53;21.17;;;13.68;;
21564;SDS011;10943;48.738;9.320;2022-12-11T13:36:30;21.90;;;13.88;;
21564;SDS011;10943;48.738;9.320;2022-12-11T13:39:04;24.25;;;15.48;;
21564;SDS011;10943;48.738;9.320;2022-12-11T13:41:51;20.77;;;13.50;;
21564;SDS011;10943;48.738;9.320;2022-12-11T13:48:54;19.73;;;13.10;;
21564;SDS011;10943;48.738;9.320;2022-12-11T13:52:54;21.48;;;13.10;;
21564;SDS011;10943;48.738;9.320;2022-12-11T13:55:42;22.55;;;14.25;;
21564;SDS011;10943;48.738;9.320;2022-12-11T13:58:18;23.17;;;14.90;;
21564;SDS011;10943;48.738;9.320;2022-12-11T14:03:54;23.45;;;14.63;;
21564;SDS011;10943;48.738;9.320;2022-12-11T14:06:30;23.20;;;14.32;;
21564;SDS011;10943;48.738;9.320;2022-12-11T14:09:02;23.20;;;14.52;;
21564;SDS011;10943;48.738;9.320;2022-12-11T14:11:33;24.73;;;15.57;;
21564;SDS011;10943;48.738;9.320;2022-12-11T14:14:07;25.55;;;15.43;;
21564;SDS011;10943;48.738;9.320;2022-12-11T14:16:50;21.20;;;13.50;;
21564;SDS011;10943;48.738;9.320;2022-12-11T14:19:21;21.70;;;14.07;;
21564;SDS011;10943;48.738;9.320;2022-12-11T14:22:02;21.92;;;14.32;;
21564;SDS011;10943;48.738;9.320;2022-12-11T14:24:34;21.40;;;13.40;;
21564;SDS011;10943;48.738;9.320;2022-12-11T14:27:02;24.10;;;13.93;;
21564;SDS011;10943;48.738;9.320;2022-12-11T14:29:31;22.38;;;13.70;;
21564;SDS011;10943;48.738;9.320;2022-12-11T14:32:03;22.30;;;13.88;;
21564;SDS011;10943;48.738;9.320;2022-12-11T14:34:38;20.77;;;13.30;;
21564;SDS011;10943;48.738;9.320;2022-12-11T14:37:11;21.70;;;14.60;;
21564;SDS011;10943;48.738;9.320;2022-12-11T14:42:29;23.83;;;14.90;;
21564;SDS011;10943;48.738;9.320;2022-12-11T14:48:11;26.80;;;16.40;;
21564;SDS011;10943;48.738;9.320;2022-12-11T14:50:52;28.27;;;15.82;;
21564;SDS011;10943;48.738;9.320;2022-12-11T14:53:25;28.55;;;16.83;;
21564;SDS011;10943;48.738;9.320;2022-12-11T14:56:04;27.50;;;16.80;;
21564;SDS011;10943;48.738;9.320;2022-12-11T14:58:50;29.35;;;17.02;;
21564;SDS011;10943;48.738;9.320;2022-12-11T15:06:45;29.25;;;17.92;;
21564;SDS011;10943;48.738;9.320;2022-12-11T15:12:11;33.55;;;18.38;;
21564;SDS011;10943;48.738;9.320;2022-12-11T15:14:51;31.00;;;18.45;;
21564;SDS011;10943;48.738;9.320;2022-12-11T15:17:24;30.65;;;18.02;;
21564;SDS011;10943;48.738;9.320;2022-12-11T15:19:54;30.40;;;17.70;;
21564;SDS011;10943;48.738;9.320;2022-12-11T15:22:34;32.08;;;18.63;;
21564;SDS011;10943;48.738;9.320;2022-12-11T15:25:02;28.88;;;17.02;;
21564;SDS011;10943;48.738;9.320;2022-12-11T15:27:37;33.63;;;18.95;;
21564;SDS011;10943;48.738;9.320;2022-12-11T15:35:38;30.92;;;18.02;;
21564;SDS011;10943;48.738;9.320;2022-12-11T15:38:25;32.13;;;18.48;;
21564;SDS011;10943;48.738;9.320;2022-12-11T15:41:13;33.90;;;18.65;;
21564;SDS011;10943;48.738;9.320;2022-12-11T15:43:52;34.40;;;19.23;;
21564;SDS011;10943;48.738;9.320;2022-12-11T15:46:24;32.53;;;19.13;;
21564;SDS011;10943;48.738;9.320;2022-12-11T15:48:53;36.17;;;19.38;;
21564;SDS011;10943;48.738;9.320;2022-12-11T15:51:23;33.65;;;19.20;;
21564;SDS011;10943;48.738;9.320;2022-12-11T15:53:52;35.40;;;19.80;;
21564;SDS011;10943;48.738;9.320;2022-12-11T15:56:20;34.85;;;19.88;;
21564;SDS011;10943;48.738;9.320;2022-12-11T15:58:48;34.80;;;19.67;;
21564;SDS011;10943;48.738;9.320;2022-12-11T16:01:16;34.15;;;20.25;;
21564;SDS011;10943;48.738;9.320;2022-12-11T16:03:44;36.60;;;19.35;;
21564;SDS011;10943;48.738;9.320;2022-12-11T16:06:12;34.33;;;20.20;;
21564;SDS011;10943;48.738;9.320;2022-12-11T16:08:43;33.55;;;19.55;;
21564;SDS011;10943;48.738;9.320;2022-12-11T16:11:22;33.47;;;19.75;;
21564;SDS011;10943;48.738;9.320;2022-12-11T16:13:50;36.50;;;19.83;;
21564;SDS011;10943;48.738;9.320;2022-12-11T16:16:17;36.55;;;20.48;;
21564;SDS011;10943;48.738;9.320;2022-12-11T16:18:44;37.90;;;20.38;;
21564;SDS011;10943;48.738;9.320;2022-12-11T16:21:12;36.40;;;20.63;;
21564;SDS011;10943;48.738;9.320;2022-12-11T16:23:46;34.85;;;20.63;;
21564;SDS011;10943;48.738;9.320;2022-12-11T16:26:14;35.00;;;20.77;;
21564;SDS011;10943;48.738;9.320;2022-12-11T16:28:41;37.47;;;21.15;;
21564;SDS011;10943;48.738;9.320;2022-12-11T16:31:09;36.17;;;20.27;;
21564;SDS011;10943;48.738;9.320;2022-12-11T16:33:40;39.80;;;20.67;;
21564;SDS011;10943;48.738;9.320;2022-12-11T16:36:16;36.75;;;20.15;;
21564;SDS011;10943;48.738;9.320;2022-12-11T16:38:45;37.50;;;20.88;;
21564;SDS011;10943;48.738;9.320;2022-12-11T16:41:19;37.25;;;20.58;;
21564;SDS011;10943;48.738;9.320;2022-12-11T16:43:52;37.40;;;21.33;;
21564;SDS011;10943;48.738;9.320;2022-12-11T16:46:20;39.10;;;20.92;;
21564;SDS011;10943;48.738;9.320;2022-12-11T16:48:50;38.17;;;21.58;;
21564;SDS011;10943;48.738;9.320;2022-12-11T16:51:17;39.60;;;23.55;;
21564;SDS011;10943;48.738;9.320;2022-12-11T16:53:44;42.97;;;23.90;;
21564;SDS011;10943;48.738;9.320;2022-12-11T16:59:39;40.58;;;22.48;;
21564;SDS011;10943;48.738;9.320;2022-12-11T17:02:15;39.78;;;22.52;;
21564;SDS011;10943;48.738;9.320;2022-12-11T17:04:43;39.47;;;22.70;;
21564;SDS011;10943;48.738;9.320;2022-12-11T17:07:19;38.33;;;22.23;;
21564;SDS011;10943;48.738;9.320;2022-12-11T17:09:46;39.45;;;23.52;;
21564;SDS011;10943;48.738;9.320;2022-12-11T17:12:13;40.20;;;23.00;;
21564;SDS011;10943;48.738;9.320;2022-12-11T17:14:41;38.63;;;22.38;;
21564;SDS011;10943;48.738;9.320;2022-12-11T17:17:08;40.17;;;23.27;;
21564;SDS011;10943;48.738;9.320;2022-12-11T17:19:36;40.47;;;21.98;;
21564;SDS011;10943;48.738;9.320;2022-12-11T17:22:03;42.53;;;23.27;;
21564;SDS011;10943;48.738;9.320;2022-12-11T17:24:30;43.63;;;23.17;;